Terminal Aerodrome Forecast
Issued by NWS

Home | Current Version | Previous Version | Text Only | Print | Product List | Glossary On
Versions: 1 2 3 4 5 6 7 8 9 10 11 12 13 14
000
FTUS45 KABQ 020539
TAFGUP
TAF
KGUP 020539Z 0206/0306 VRB06KT P6SM BKN090
     FM021900 23011KT P6SM VCTS BKN060CB
     FM022200 23011G19KT P6SM VCSH SCT060 BKN090
     FM030200 VRB06KT P6SM BKN100=

USA.gov is the U.S. government's official web portal to all federal, state and local government web resources and services.